sensor_id;sensor_type;location;lat;lon;timestamp;P1;durP1;ratioP1;P2;durP2;ratioP2
70547;SDS011;58099;43.406;3.698;2023-04-09T07:32:46;3.60;;;1.23;;
70547;SDS011;58099;43.406;3.698;2023-04-09T07:35:11;4.72;;;1.10;;
70547;SDS011;58099;43.406;3.698;2023-04-09T07:37:37;4.10;;;1.48;;
70547;SDS011;58099;43.406;3.698;2023-04-09T07:40:03;3.90;;;1.07;;
70547;SDS011;58099;43.406;3.698;2023-04-09T07:42:30;3.00;;;1.00;;
70547;SDS011;58099;43.406;3.698;2023-04-09T07:44:55;3.90;;;1.17;;
70547;SDS011;58099;43.406;3.698;2023-04-09T07:47:21;3.60;;;1.10;;
70547;SDS011;58099;43.406;3.698;2023-04-09T07:49:48;5.00;;;1.40;;
70547;SDS011;58099;43.406;3.698;2023-04-09T07:52:13;4.80;;;1.15;;
70547;SDS011;58099;43.406;3.698;2023-04-09T07:54:39;4.07;;;1.60;;
70547;SDS011;58099;43.406;3.698;2023-04-09T07:57:05;4.10;;;1.10;;
70547;SDS011;58099;43.406;3.698;2023-04-09T07:59:31;3.63;;;1.10;;
70547;SDS011;58099;43.406;3.698;2023-04-09T08:01:58;4.63;;;1.10;;
70547;SDS011;58099;43.406;3.698;2023-04-09T08:04:24;4.03;;;1.30;;
70547;SDS011;58099;43.406;3.698;2023-04-09T08:06:51;4.00;;;1.33;;
70547;SDS011;58099;43.406;3.698;2023-04-09T08:09:18;3.33;;;1.50;;
70547;SDS011;58099;43.406;3.698;2023-04-09T08:11:44;3.58;;;1.08;;
70547;SDS011;58099;43.406;3.698;2023-04-09T08:14:10;4.32;;;1.67;;
70547;SDS011;58099;43.406;3.698;2023-04-09T08:16:39;4.23;;;1.50;;
70547;SDS011;58099;43.406;3.698;2023-04-09T08:19:10;3.40;;;1.30;;
70547;SDS011;58099;43.406;3.698;2023-04-09T08:21:39;3.50;;;1.25;;
70547;SDS011;58099;43.406;3.698;2023-04-09T08:24:08;3.33;;;1.50;;
70547;SDS011;58099;43.406;3.698;2023-04-09T08:26:36;3.55;;;1.02;;
70547;SDS011;58099;43.406;3.698;2023-04-09T08:29:02;3.17;;;1.30;;
70547;SDS011;58099;43.406;3.698;2023-04-09T08:31:28;5.22;;;1.75;;
70547;SDS011;58099;43.406;3.698;2023-04-09T08:33:53;6.22;;;1.25;;
70547;SDS011;58099;43.406;3.698;2023-04-09T08:36:19;5.77;;;1.33;;
70547;SDS011;58099;43.406;3.698;2023-04-09T08:38:45;4.32;;;1.20;;
70547;SDS011;58099;43.406;3.698;2023-04-09T08:41:16;7.10;;;1.45;;
70547;SDS011;58099;43.406;3.698;2023-04-09T08:43:44;4.13;;;1.30;;
70547;SDS011;58099;43.406;3.698;2023-04-09T08:46:11;5.10;;;0.90;;
70547;SDS011;58099;43.406;3.698;2023-04-09T08:48:40;6.38;;;1.60;;
70547;SDS011;58099;43.406;3.698;2023-04-09T08:51:14;8.80;;;1.85;;
70547;SDS011;58099;43.406;3.698;2023-04-09T08:53:47;4.53;;;1.70;;
70547;SDS011;58099;43.406;3.698;2023-04-09T08:56:20;4.10;;;1.50;;
70547;SDS011;58099;43.406;3.698;2023-04-09T08:58:46;5.10;;;1.38;;
70547;SDS011;58099;43.406;3.698;2023-04-09T09:06:27;3.80;;;1.25;;
70547;SDS011;58099;43.406;3.698;2023-04-09T09:14:13;3.53;;;1.40;;
70547;SDS011;58099;43.406;3.698;2023-04-09T09:16:40;4.10;;;1.07;;
70547;SDS011;58099;43.406;3.698;2023-04-09T09:19:29;3.53;;;1.00;;
70547;SDS011;58099;43.406;3.698;2023-04-09T09:21:55;4.47;;;0.90;;
70547;SDS011;58099;43.406;3.698;2023-04-09T09:24:30;3.28;;;0.80;;
70547;SDS011;58099;43.406;3.698;2023-04-09T09:26:58;3.50;;;1.20;;
70547;SDS011;58099;43.406;3.698;2023-04-09T09:29:24;5.43;;;1.10;;
70547;SDS011;58099;43.406;3.698;2023-04-09T09:31:52;3.83;;;1.05;;
70547;SDS011;58099;43.406;3.698;2023-04-09T09:34:19;4.53;;;1.15;;
70547;SDS011;58099;43.406;3.698;2023-04-09T09:36:45;3.40;;;0.82;;
70547;SDS011;58099;43.406;3.698;2023-04-09T09:39:12;3.03;;;0.88;;
70547;SDS011;58099;43.406;3.698;2023-04-09T09:41:41;3.93;;;1.00;;
70547;SDS011;58099;43.406;3.698;2023-04-09T09:44:08;3.05;;;1.20;;
70547;SDS011;58099;43.406;3.698;2023-04-09T09:46:39;3.63;;;1.10;;
70547;SDS011;58099;43.406;3.698;2023-04-09T09:49:06;5.15;;;1.20;;
70547;SDS011;58099;43.406;3.698;2023-04-09T09:51:34;3.40;;;1.25;;
70547;SDS011;58099;43.406;3.698;2023-04-09T09:54:02;3.33;;;1.17;;
70547;SDS011;58099;43.406;3.698;2023-04-09T09:56:35;3.55;;;1.00;;
70547;SDS011;58099;43.406;3.698;2023-04-09T10:01:43;3.20;;;0.90;;
70547;SDS011;58099;43.406;3.698;2023-04-09T10:04:12;2.78;;;0.90;;
70547;SDS011;58099;43.406;3.698;2023-04-09T10:06:43;3.37;;;0.97;;
70547;SDS011;58099;43.406;3.698;2023-04-09T10:09:09;3.03;;;0.82;;
70547;SDS011;58099;43.406;3.698;2023-04-09T10:11:36;2.75;;;0.60;;
70547;SDS011;58099;43.406;3.698;2023-04-09T10:14:02;2.90;;;0.80;;
70547;SDS011;58099;43.406;3.698;2023-04-09T10:16:31;3.13;;;0.80;;
70547;SDS011;58099;43.406;3.698;2023-04-09T10:18:58;2.63;;;0.87;;
70547;SDS011;58099;43.406;3.698;2023-04-09T10:23:53;3.58;;;0.85;;
70547;SDS011;58099;43.406;3.698;2023-04-09T10:26:20;3.03;;;1.00;;
70547;SDS011;58099;43.406;3.698;2023-04-09T10:29:07;3.03;;;0.97;;
70547;SDS011;58099;43.406;3.698;2023-04-09T10:34:37;3.22;;;1.00;;
70547;SDS011;58099;43.406;3.698;2023-04-09T10:37:08;3.28;;;1.10;;
70547;SDS011;58099;43.406;3.698;2023-04-09T10:39:39;3.25;;;0.70;;
70547;SDS011;58099;43.406;3.698;2023-04-09T10:42:10;3.93;;;1.30;;
70547;SDS011;58099;43.406;3.698;2023-04-09T10:44:39;3.60;;;0.98;;
70547;SDS011;58099;43.406;3.698;2023-04-09T10:47:08;3.45;;;0.93;;
70547;SDS011;58099;43.406;3.698;2023-04-09T10:49:35;4.10;;;0.90;;
70547;SDS011;58099;43.406;3.698;2023-04-09T10:52:05;3.30;;;0.85;;
70547;SDS011;58099;43.406;3.698;2023-04-09T10:59:45;3.47;;;1.00;;
70547;SDS011;58099;43.406;3.698;2023-04-09T11:10:30;3.47;;;0.80;;
70547;SDS011;58099;43.406;3.698;2023-04-09T11:12:57;4.63;;;1.42;;
70547;SDS011;58099;43.406;3.698;2023-04-09T11:15:22;3.67;;;1.20;;
70547;SDS011;58099;43.406;3.698;2023-04-09T11:17:48;3.33;;;1.17;;
70547;SDS011;58099;43.406;3.698;2023-04-09T11:20:15;4.10;;;1.02;;
70547;SDS011;58099;43.406;3.698;2023-04-09T11:22:43;4.97;;;1.00;;
70547;SDS011;58099;43.406;3.698;2023-04-09T11:25:09;3.13;;;1.20;;
70547;SDS011;58099;43.406;3.698;2023-04-09T11:27:38;4.05;;;1.10;;
70547;SDS011;58099;43.406;3.698;2023-04-09T11:30:08;3.08;;;1.10;;
70547;SDS011;58099;43.406;3.698;2023-04-09T11:32:34;3.08;;;1.10;;
70547;SDS011;58099;43.406;3.698;2023-04-09T11:35:00;2.93;;;0.83;;
70547;SDS011;58099;43.406;3.698;2023-04-09T11:37:26;2.95;;;0.98;;
70547;SDS011;58099;43.406;3.698;2023-04-09T11:39:52;4.50;;;1.00;;
70547;SDS011;58099;43.406;3.698;2023-04-09T11:42:19;3.30;;;1.27;;
70547;SDS011;58099;43.406;3.698;2023-04-09T11:44:46;4.32;;;1.40;;
70547;SDS011;58099;43.406;3.698;2023-04-09T11:47:13;4.35;;;1.60;;
70547;SDS011;58099;43.406;3.698;2023-04-09T11:49:41;4.18;;;1.15;;
70547;SDS011;58099;43.406;3.698;2023-04-09T11:52:07;3.30;;;1.23;;
70547;SDS011;58099;43.406;3.698;2023-04-09T11:54:34;3.30;;;1.10;;
70547;SDS011;58099;43.406;3.698;2023-04-09T11:57:02;4.78;;;1.25;;
70547;SDS011;58099;43.406;3.698;2023-04-09T11:59:28;3.63;;;1.02;;
70547;SDS011;58099;43.406;3.698;2023-04-09T12:01:57;4.13;;;1.45;;
70547;SDS011;58099;43.406;3.698;2023-04-09T12:04:24;3.90;;;1.53;;
70547;SDS011;58099;43.406;3.698;2023-04-09T12:06:50;5.53;;;1.02;;
70547;SDS011;58099;43.406;3.698;2023-04-09T12:09:21;3.20;;;1.10;;
70547;SDS011;58099;43.406;3.698;2023-04-09T12:11:47;3.47;;;1.20;;
70547;SDS011;58099;43.406;3.698;2023-04-09T12:14:16;3.33;;;0.83;;
70547;SDS011;58099;43.406;3.698;2023-04-09T12:16:43;5.28;;;1.33;;
70547;SDS011;58099;43.406;3.698;2023-04-09T12:19:12;3.95;;;1.00;;
70547;SDS011;58099;43.406;3.698;2023-04-09T12:21:53;2.95;;;1.00;;
70547;SDS011;58099;43.406;3.698;2023-04-09T12:24:21;3.63;;;0.70;;
70547;SDS011;58099;43.406;3.698;2023-04-09T12:26:48;2.92;;;0.90;;
70547;SDS011;58099;43.406;3.698;2023-04-09T12:29:16;4.00;;;1.08;;
70547;SDS011;58099;43.406;3.698;2023-04-09T12:31:43;3.00;;;0.90;;
70547;SDS011;58099;43.406;3.698;2023-04-09T12:34:09;4.57;;;0.90;;
70547;SDS011;58099;43.406;3.698;2023-04-09T12:36:36;3.23;;;1.07;;
70547;SDS011;58099;43.406;3.698;2023-04-09T12:39:08;4.90;;;0.98;;
70547;SDS011;58099;43.406;3.698;2023-04-09T12:41:35;3.20;;;0.82;;
70547;SDS011;58099;43.406;3.698;2023-04-09T12:44:00;3.75;;;1.13;;
70547;SDS011;58099;43.406;3.698;2023-04-09T12:46:26;3.57;;;1.20;;
70547;SDS011;58099;43.406;3.698;2023-04-09T12:48:52;3.08;;;1.00;;
70547;SDS011;58099;43.406;3.698;2023-04-09T12:51:18;3.23;;;1.10;;
70547;SDS011;58099;43.406;3.698;2023-04-09T12:53:44;3.25;;;0.90;;
70547;SDS011;58099;43.406;3.698;2023-04-09T12:56:10;4.55;;;1.00;;
70547;SDS011;58099;43.406;3.698;2023-04-09T12:58:36;3.30;;;1.00;;
70547;SDS011;58099;43.406;3.698;2023-04-09T13:01:02;3.90;;;1.10;;
70547;SDS011;58099;43.406;3.698;2023-04-09T13:03:28;2.75;;;0.90;;
70547;SDS011;58099;43.406;3.698;2023-04-09T13:05:54;3.22;;;1.00;;
70547;SDS011;58099;43.406;3.698;2023-04-09T13:08:20;3.75;;;0.93;;
70547;SDS011;58099;43.406;3.698;2023-04-09T13:10:46;3.33;;;1.07;;
70547;SDS011;58099;43.406;3.698;2023-04-09T13:13:11;3.33;;;1.10;;
70547;SDS011;58099;43.406;3.698;2023-04-09T13:15:38;3.03;;;1.00;;
70547;SDS011;58099;43.406;3.698;2023-04-09T13:18:07;3.25;;;1.00;;
70547;SDS011;58099;43.406;3.698;2023-04-09T13:20:32;3.50;;;1.17;;
70547;SDS011;58099;43.406;3.698;2023-04-09T13:22:58;3.13;;;1.10;;
70547;SDS011;58099;43.406;3.698;2023-04-09T13:25:24;3.60;;;1.10;;
70547;SDS011;58099;43.406;3.698;2023-04-09T13:27:50;3.17;;;0.90;;
70547;SDS011;58099;43.406;3.698;2023-04-09T13:30:16;3.58;;;1.00;;
70547;SDS011;58099;43.406;3.698;2023-04-09T13:32:41;3.97;;;1.00;;
70547;SDS011;58099;43.406;3.698;2023-04-09T13:35:07;4.55;;;1.10;;
70547;SDS011;58099;43.406;3.698;2023-04-09T13:37:34;3.25;;;1.00;;
70547;SDS011;58099;43.406;3.698;2023-04-09T13:40:00;3.20;;;1.10;;
70547;SDS011;58099;43.406;3.698;2023-04-09T13:42:26;3.60;;;1.20;;
70547;SDS011;58099;43.406;3.698;2023-04-09T13:44:52;3.15;;;1.30;;
70547;SDS011;58099;43.406;3.698;2023-04-09T13:47:17;3.92;;;1.40;;
70547;SDS011;58099;43.406;3.698;2023-04-09T13:49:43;3.00;;;1.00;;
70547;SDS011;58099;43.406;3.698;2023-04-09T13:52:09;4.05;;;1.13;;
70547;SDS011;58099;43.406;3.698;2023-04-09T13:54:35;3.35;;;1.10;;
70547;SDS011;58099;43.406;3.698;2023-04-09T13:57:01;3.20;;;1.10;;
70547;SDS011;58099;43.406;3.698;2023-04-09T13:59:27;3.45;;;1.15;;
70547;SDS011;58099;43.406;3.698;2023-04-09T14:01:53;3.53;;;1.20;;
70547;SDS011;58099;43.406;3.698;2023-04-09T14:04:19;2.90;;;1.10;;
70547;SDS011;58099;43.406;3.698;2023-04-09T14:06:45;3.72;;;1.20;;
70547;SDS011;58099;43.406;3.698;2023-04-09T14:09:11;3.30;;;1.20;;
70547;SDS011;58099;43.406;3.698;2023-04-09T14:11:37;4.20;;;1.50;;
70547;SDS011;58099;43.406;3.698;2023-04-09T14:14:03;4.15;;;1.50;;
70547;SDS011;58099;43.406;3.698;2023-04-09T14:16:29;3.70;;;1.60;;
70547;SDS011;58099;43.406;3.698;2023-04-09T14:18:55;3.65;;;1.50;;
70547;SDS011;58099;43.406;3.698;2023-04-09T14:21:21;3.80;;;1.20;;
70547;SDS011;58099;43.406;3.698;2023-04-09T14:23:48;4.38;;;1.40;;
70547;SDS011;58099;43.406;3.698;2023-04-09T14:26:13;3.67;;;1.50;;
70547;SDS011;58099;43.406;3.698;2023-04-09T14:28:43;3.70;;;1.60;;
70547;SDS011;58099;43.406;3.698;2023-04-09T14:31:11;4.20;;;1.50;;
70547;SDS011;58099;43.406;3.698;2023-04-09T14:33:38;4.43;;;1.40;;
70547;SDS011;58099;43.406;3.698;2023-04-09T14:36:04;3.77;;;1.13;;
70547;SDS011;58099;43.406;3.698;2023-04-09T14:38:30;4.43;;;1.48;;
70547;SDS011;58099;43.406;3.698;2023-04-09T14:40:57;3.25;;;1.08;;
70547;SDS011;58099;43.406;3.698;2023-04-09T14:43:22;3.50;;;1.20;;
70547;SDS011;58099;43.406;3.698;2023-04-09T14:45:48;4.75;;;1.40;;
70547;SDS011;58099;43.406;3.698;2023-04-09T14:48:13;4.07;;;1.40;;
70547;SDS011;58099;43.406;3.698;2023-04-09T14:50:39;3.40;;;1.23;;
70547;SDS011;58099;43.406;3.698;2023-04-09T14:53:05;4.40;;;1.37;;
70547;SDS011;58099;43.406;3.698;2023-04-09T14:55:31;3.97;;;1.25;;
70547;SDS011;58099;43.406;3.698;2023-04-09T14:57:57;4.40;;;1.60;;
70547;SDS011;58099;43.406;3.698;2023-04-09T15:00:23;3.88;;;1.42;;
70547;SDS011;58099;43.406;3.698;2023-04-09T15:02:49;4.57;;;1.27;;
70547;SDS011;58099;43.406;3.698;2023-04-09T15:05:15;3.90;;;1.63;;
70547;SDS011;58099;43.406;3.698;2023-04-09T15:07:41;4.47;;;1.20;;
70547;SDS011;58099;43.406;3.698;2023-04-09T15:10:07;4.00;;;1.37;;
70547;SDS011;58099;43.406;3.698;2023-04-09T15:12:33;4.18;;;1.52;;
70547;SDS011;58099;43.406;3.698;2023-04-09T15:14:59;3.88;;;1.25;;
70547;SDS011;58099;43.406;3.698;2023-04-09T15:17:25;4.40;;;1.90;;
70547;SDS011;58099;43.406;3.698;2023-04-09T15:19:52;4.35;;;1.77;;
70547;SDS011;58099;43.406;3.698;2023-04-09T15:22:18;4.40;;;1.73;;
70547;SDS011;58099;43.406;3.698;2023-04-09T15:24:44;4.40;;;1.63;;
70547;SDS011;58099;43.406;3.698;2023-04-09T15:27:10;4.27;;;1.37;;
70547;SDS011;58099;43.406;3.698;2023-04-09T15:29:36;3.60;;;1.13;;
70547;SDS011;58099;43.406;3.698;2023-04-09T15:32:01;5.33;;;1.47;;
70547;SDS011;58099;43.406;3.698;2023-04-09T15:34:27;3.85;;;1.60;;
70547;SDS011;58099;43.406;3.698;2023-04-09T15:36:53;4.73;;;1.73;;
70547;SDS011;58099;43.406;3.698;2023-04-09T15:39:18;4.65;;;1.83;;
70547;SDS011;58099;43.406;3.698;2023-04-09T15:41:47;5.57;;;1.90;;
70547;SDS011;58099;43.406;3.698;2023-04-09T15:44:12;4.10;;;1.70;;
70547;SDS011;58099;43.406;3.698;2023-04-09T15:46:38;5.83;;;2.00;;
70547;SDS011;58099;43.406;3.698;2023-04-09T15:49:04;4.00;;;1.55;;
70547;SDS011;58099;43.406;3.698;2023-04-09T15:51:29;4.43;;;1.57;;
70547;SDS011;58099;43.406;3.698;2023-04-09T15:53:55;4.07;;;1.50;;
70547;SDS011;58099;43.406;3.698;2023-04-09T15:56:22;4.00;;;1.90;;
70547;SDS011;58099;43.406;3.698;2023-04-09T15:58:48;4.68;;;1.50;;
70547;SDS011;58099;43.406;3.698;2023-04-09T16:01:13;5.30;;;1.40;;
70547;SDS011;58099;43.406;3.698;2023-04-09T16:03:39;5.13;;;1.67;;
70547;SDS011;58099;43.406;3.698;2023-04-09T16:06:06;4.60;;;1.80;;
70547;SDS011;58099;43.406;3.698;2023-04-09T16:08:35;4.43;;;1.65;;
70547;SDS011;58099;43.406;3.698;2023-04-09T16:11:02;5.25;;;1.48;;
70547;SDS011;58099;43.406;3.698;2023-04-09T16:13:28;3.92;;;1.20;;
70547;SDS011;58099;43.406;3.698;2023-04-09T16:15:54;4.38;;;1.50;;
70547;SDS011;58099;43.406;3.698;2023-04-09T16:18:20;4.40;;;1.50;;
70547;SDS011;58099;43.406;3.698;2023-04-09T16:20:46;4.85;;;1.80;;
70547;SDS011;58099;43.406;3.698;2023-04-09T16:23:16;4.53;;;1.70;;
70547;SDS011;58099;43.406;3.698;2023-04-09T16:25:42;5.07;;;1.57;;
70547;SDS011;58099;43.406;3.698;2023-04-09T16:28:08;4.32;;;1.75;;
70547;SDS011;58099;43.406;3.698;2023-04-09T16:30:33;4.40;;;1.70;;
70547;SDS011;58099;43.406;3.698;2023-04-09T16:32:59;5.82;;;1.50;;
70547;SDS011;58099;43.406;3.698;2023-04-09T16:35:25;4.43;;;1.75;;
70547;SDS011;58099;43.406;3.698;2023-04-09T16:37:50;4.60;;;1.13;;
70547;SDS011;58099;43.406;3.698;2023-04-09T16:40:16;4.93;;;1.50;;
70547;SDS011;58099;43.406;3.698;2023-04-09T16:42:46;5.75;;;1.35;;
70547;SDS011;58099;43.406;3.698;2023-04-09T16:45:11;4.23;;;1.80;;
70547;SDS011;58099;43.406;3.698;2023-04-09T16:47:37;6.57;;;1.75;;
70547;SDS011;58099;43.406;3.698;2023-04-09T16:50:03;5.53;;;1.60;;
70547;SDS011;58099;43.406;3.698;2023-04-09T16:52:29;4.13;;;1.30;;
70547;SDS011;58099;43.406;3.698;2023-04-09T16:54:54;4.83;;;1.63;;
70547;SDS011;58099;43.406;3.698;2023-04-09T16:57:20;5.53;;;1.63;;
70547;SDS011;58099;43.406;3.698;2023-04-09T16:59:46;4.23;;;1.47;;
70547;SDS011;58099;43.406;3.698;2023-04-09T17:02:11;4.03;;;1.60;;
70547;SDS011;58099;43.406;3.698;2023-04-09T17:04:37;4.30;;;1.60;;
70547;SDS011;58099;43.406;3.698;2023-04-09T17:07:03;6.30;;;1.40;;
70547;SDS011;58099;43.406;3.698;2023-04-09T17:09:29;5.10;;;1.55;;
70547;SDS011;58099;43.406;3.698;2023-04-09T17:11:55;5.43;;;1.60;;
70547;SDS011;58099;43.406;3.698;2023-04-09T17:14:22;4.25;;;1.40;;
70547;SDS011;58099;43.406;3.698;2023-04-09T17:16:48;4.72;;;1.33;;
70547;SDS011;58099;43.406;3.698;2023-04-09T17:19:16;5.35;;;1.40;;
70547;SDS011;58099;43.406;3.698;2023-04-09T17:21:42;5.57;;;1.47;;
70547;SDS011;58099;43.406;3.698;2023-04-09T17:24:07;4.00;;;1.50;;
70547;SDS011;58099;43.406;3.698;2023-04-09T17:26:33;4.10;;;1.20;;
70547;SDS011;58099;43.406;3.698;2023-04-09T17:28:59;3.42;;;1.27;;
70547;SDS011;58099;43.406;3.698;2023-04-09T17:31:26;4.57;;;1.42;;
70547;SDS011;58099;43.406;3.698;2023-04-09T17:33:51;4.30;;;1.20;;
70547;SDS011;58099;43.406;3.698;2023-04-09T17:36:17;5.97;;;1.67;;
70547;SDS011;58099;43.406;3.698;2023-04-09T17:38:44;4.40;;;1.20;;
70547;SDS011;58099;43.406;3.698;2023-04-09T17:41:11;4.47;;;1.48;;
70547;SDS011;58099;43.406;3.698;2023-04-09T17:43:37;3.97;;;1.33;;
70547;SDS011;58099;43.406;3.698;2023-04-09T17:46:03;4.47;;;1.37;;
70547;SDS011;58099;43.406;3.698;2023-04-09T17:48:31;4.60;;;1.35;;
70547;SDS011;58099;43.406;3.698;2023-04-09T17:50:57;8.67;;;1.90;;
70547;SDS011;58099;43.406;3.698;2023-04-09T17:53:22;3.95;;;1.17;;
70547;SDS011;58099;43.406;3.698;2023-04-09T17:55:48;7.70;;;1.50;;
70547;SDS011;58099;43.406;3.698;2023-04-09T17:58:15;4.88;;;1.30;;
70547;SDS011;58099;43.406;3.698;2023-04-09T18:00:41;3.55;;;1.25;;
70547;SDS011;58099;43.406;3.698;2023-04-09T18:03:07;5.40;;;1.70;;
70547;SDS011;58099;43.406;3.698;2023-04-09T18:05:33;4.60;;;1.33;;
70547;SDS011;58099;43.406;3.698;2023-04-09T18:07:59;4.90;;;1.53;;
70547;SDS011;58099;43.406;3.698;2023-04-09T18:10:28;4.22;;;1.20;;
70547;SDS011;58099;43.406;3.698;2023-04-09T18:12:54;5.38;;;1.40;;
70547;SDS011;58099;43.406;3.698;2023-04-09T18:15:19;5.30;;;1.57;;
70547;SDS011;58099;43.406;3.698;2023-04-09T18:17:46;5.90;;;1.52;;
70547;SDS011;58099;43.406;3.698;2023-04-09T18:20:12;3.92;;;1.38;;
70547;SDS011;58099;43.406;3.698;2023-04-09T18:22:39;5.28;;;1.70;;
70547;SDS011;58099;43.406;3.698;2023-04-09T18:25:06;5.03;;;1.27;;
70547;SDS011;58099;43.406;3.698;2023-04-09T18:27:32;5.80;;;1.85;;
70547;SDS011;58099;43.406;3.698;2023-04-09T18:29:58;3.90;;;1.60;;
70547;SDS011;58099;43.406;3.698;2023-04-09T18:32:24;4.40;;;1.30;;
70547;SDS011;58099;43.406;3.698;2023-04-09T18:34:50;3.78;;;1.55;;
70547;SDS011;58099;43.406;3.698;2023-04-09T18:37:17;4.45;;;1.67;;
70547;SDS011;58099;43.406;3.698;2023-04-09T18:39:43;5.22;;;1.60;;
70547;SDS011;58099;43.406;3.698;2023-04-09T18:42:10;4.32;;;1.50;;
70547;SDS011;58099;43.406;3.698;2023-04-09T18:44:36;4.10;;;1.37;;
70547;SDS011;58099;43.406;3.698;2023-04-09T18:47:05;5.20;;;1.27;;
70547;SDS011;58099;43.406;3.698;2023-04-09T18:49:33;4.65;;;1.70;;
70547;SDS011;58099;43.406;3.698;2023-04-09T18:52:00;4.57;;;1.30;;
70547;SDS011;58099;43.406;3.698;2023-04-09T18:54:26;4.38;;;1.67;;
70547;SDS011;58099;43.406;3.698;2023-04-09T18:56:52;6.20;;;1.60;;
70547;SDS011;58099;43.406;3.698;2023-04-09T18:59:18;5.28;;;2.13;;
70547;SDS011;58099;43.406;3.698;2023-04-09T19:01:44;7.80;;;2.20;;
70547;SDS011;58099;43.406;3.698;2023-04-09T19:04:09;6.87;;;1.97;;
70547;SDS011;58099;43.406;3.698;2023-04-09T19:06:36;4.35;;;1.50;;
70547;SDS011;58099;43.406;3.698;2023-04-09T19:09:02;4.20;;;1.38;;
70547;SDS011;58099;43.406;3.698;2023-04-09T19:11:28;5.60;;;1.65;;
70547;SDS011;58099;43.406;3.698;2023-04-09T19:13:54;4.53;;;1.50;;
70547;SDS011;58099;43.406;3.698;2023-04-09T19:16:20;5.18;;;1.90;;
70547;SDS011;58099;43.406;3.698;2023-04-09T19:18:46;5.40;;;1.83;;
70547;SDS011;58099;43.406;3.698;2023-04-09T19:21:12;4.30;;;1.75;;
70547;SDS011;58099;43.406;3.698;2023-04-09T19:23:37;3.92;;;1.45;;
70547;SDS011;58099;43.406;3.698;2023-04-09T19:26:03;4.20;;;2.03;;
70547;SDS011;58099;43.406;3.698;2023-04-09T19:28:29;5.38;;;2.13;;
70547;SDS011;58099;43.406;3.698;2023-04-09T19:30:55;6.13;;;2.17;;
70547;SDS011;58099;43.406;3.698;2023-04-09T19:33:23;6.10;;;1.70;;
70547;SDS011;58099;43.406;3.698;2023-04-09T19:35:50;6.18;;;1.80;;
70547;SDS011;58099;43.406;3.698;2023-04-09T19:38:18;5.03;;;1.80;;
70547;SDS011;58099;43.406;3.698;2023-04-09T19:40:44;5.60;;;1.77;;
70547;SDS011;58099;43.406;3.698;2023-04-09T19:43:11;4.63;;;1.70;;
70547;SDS011;58099;43.406;3.698;2023-04-09T19:45:37;5.30;;;2.07;;
70547;SDS011;58099;43.406;3.698;2023-04-09T19:48:04;5.28;;;1.98;;
70547;SDS011;58099;43.406;3.698;2023-04-09T19:50:33;5.72;;;1.77;;
70547;SDS011;58099;43.406;3.698;2023-04-09T19:53:01;5.75;;;2.08;;
70547;SDS011;58099;43.406;3.698;2023-04-09T19:55:28;4.43;;;1.87;;
70547;SDS011;58099;43.406;3.698;2023-04-09T19:57:54;6.43;;;2.15;;
70547;SDS011;58099;43.406;3.698;2023-04-09T20:00:20;5.15;;;1.73;;
70547;SDS011;58099;43.406;3.698;2023-04-09T20:02:46;6.03;;;2.00;;
70547;SDS011;58099;43.406;3.698;2023-04-09T20:05:12;5.05;;;1.75;;
70547;SDS011;58099;43.406;3.698;2023-04-09T20:07:38;4.15;;;1.67;;
70547;SDS011;58099;43.406;3.698;2023-04-09T20:10:04;5.30;;;2.40;;
70547;SDS011;58099;43.406;3.698;2023-04-09T20:12:30;5.25;;;2.10;;
70547;SDS011;58099;43.406;3.698;2023-04-09T20:14:56;5.97;;;2.40;;
70547;SDS011;58099;43.406;3.698;2023-04-09T20:17:23;5.82;;;2.40;;
70547;SDS011;58099;43.406;3.698;2023-04-09T20:19:49;5.33;;;2.30;;
70547;SDS011;58099;43.406;3.698;2023-04-09T20:22:15;7.85;;;2.50;;
70547;SDS011;58099;43.406;3.698;2023-04-09T20:24:41;6.07;;;2.65;;
70547;SDS011;58099;43.406;3.698;2023-04-09T20:27:07;5.68;;;2.53;;
70547;SDS011;58099;43.406;3.698;2023-04-09T20:29:33;6.43;;;2.70;;
70547;SDS011;58099;43.406;3.698;2023-04-09T20:31:59;6.18;;;2.30;;
70547;SDS011;58099;43.406;3.698;2023-04-09T20:34:25;6.30;;;2.28;;
70547;SDS011;58099;43.406;3.698;2023-04-09T20:36:52;4.97;;;2.30;;
70547;SDS011;58099;43.406;3.698;2023-04-09T20:39:19;6.50;;;2.43;;
70547;SDS011;58099;43.406;3.698;2023-04-09T20:41:46;6.55;;;2.17;;
70547;SDS011;58099;43.406;3.698;2023-04-09T20:44:12;5.13;;;2.40;;
70547;SDS011;58099;43.406;3.698;2023-04-09T20:46:38;4.82;;;2.20;;
70547;SDS011;58099;43.406;3.698;2023-04-09T20:49:03;7.83;;;2.10;;
70547;SDS011;58099;43.406;3.698;2023-04-09T20:51:29;5.70;;;1.97;;
70547;SDS011;58099;43.406;3.698;2023-04-09T20:53:56;6.05;;;2.33;;
70547;SDS011;58099;43.406;3.698;2023-04-09T20:56:23;6.15;;;2.20;;
70547;SDS011;58099;43.406;3.698;2023-04-09T20:58:48;6.37;;;2.50;;
70547;SDS011;58099;43.406;3.698;2023-04-09T21:01:14;4.32;;;1.95;;
70547;SDS011;58099;43.406;3.698;2023-04-09T21:03:40;5.33;;;2.30;;
70547;SDS011;58099;43.406;3.698;2023-04-09T21:06:06;7.22;;;2.65;;
70547;SDS011;58099;43.406;3.698;2023-04-09T21:08:32;5.70;;;2.40;;
70547;SDS011;58099;43.406;3.698;2023-04-09T21:10:58;6.43;;;2.60;;
70547;SDS011;58099;43.406;3.698;2023-04-09T21:13:24;6.38;;;2.45;;
70547;SDS011;58099;43.406;3.698;2023-04-09T21:15:51;5.63;;;2.00;;
70547;SDS011;58099;43.406;3.698;2023-04-09T21:18:17;6.50;;;2.40;;
70547;SDS011;58099;43.406;3.698;2023-04-09T21:20:45;6.32;;;2.53;;
70547;SDS011;58099;43.406;3.698;2023-04-09T21:23:11;6.23;;;2.13;;
70547;SDS011;58099;43.406;3.698;2023-04-09T21:25:38;6.00;;;2.08;;
70547;SDS011;58099;43.406;3.698;2023-04-09T21:28:03;5.32;;;2.30;;
70547;SDS011;58099;43.406;3.698;2023-04-09T21:30:30;5.90;;;2.33;;
70547;SDS011;58099;43.406;3.698;2023-04-09T21:32:57;4.73;;;2.20;;
70547;SDS011;58099;43.406;3.698;2023-04-09T21:35:25;7.18;;;2.30;;
70547;SDS011;58099;43.406;3.698;2023-04-09T21:37:51;5.30;;;2.22;;
70547;SDS011;58099;43.406;3.698;2023-04-09T21:40:17;7.03;;;2.20;;
70547;SDS011;58099;43.406;3.698;2023-04-09T21:42:43;6.13;;;2.20;;
70547;SDS011;58099;43.406;3.698;2023-04-09T21:45:09;5.90;;;2.35;;
70547;SDS011;58099;43.406;3.698;2023-04-09T21:47:36;5.22;;;1.70;;
70547;SDS011;58099;43.406;3.698;2023-04-09T21:50:05;5.47;;;1.77;;
70547;SDS011;58099;43.406;3.698;2023-04-09T21:52:32;6.28;;;2.30;;
70547;SDS011;58099;43.406;3.698;2023-04-09T21:54:58;5.10;;;1.63;;
70547;SDS011;58099;43.406;3.698;2023-04-09T21:57:24;5.80;;;1.98;;
70547;SDS011;58099;43.406;3.698;2023-04-09T21:59:50;5.05;;;2.20;;
70547;SDS011;58099;43.406;3.698;2023-04-09T22:02:17;5.35;;;1.60;;
70547;SDS011;58099;43.406;3.698;2023-04-09T22:04:42;4.10;;;1.58;;
70547;SDS011;58099;43.406;3.698;2023-04-09T22:07:09;4.57;;;1.63;;
70547;SDS011;58099;43.406;3.698;2023-04-09T22:09:35;4.85;;;1.73;;
70547;SDS011;58099;43.406;3.698;2023-04-09T22:12:01;4.85;;;1.80;;
70547;SDS011;58099;43.406;3.698;2023-04-09T22:14:27;4.65;;;1.92;;
70547;SDS011;58099;43.406;3.698;2023-04-09T22:16:57;4.40;;;1.70;;
70547;SDS011;58099;43.406;3.698;2023-04-09T22:19:28;4.40;;;1.52;;
70547;SDS011;58099;43.406;3.698;2023-04-09T22:21:56;5.93;;;1.60;;
70547;SDS011;58099;43.406;3.698;2023-04-09T22:24:22;3.90;;;1.20;;
70547;SDS011;58099;43.406;3.698;2023-04-09T22:26:53;4.47;;;1.10;;
70547;SDS011;58099;43.406;3.698;2023-04-09T22:29:25;4.60;;;1.30;;
70547;SDS011;58099;43.406;3.698;2023-04-09T22:31:52;5.90;;;1.30;;
70547;SDS011;58099;43.406;3.698;2023-04-09T22:34:18;4.18;;;1.33;;
70547;SDS011;58099;43.406;3.698;2023-04-09T22:36:43;5.75;;;1.48;;
70547;SDS011;58099;43.406;3.698;2023-04-09T22:39:09;4.85;;;1.58;;
70547;SDS011;58099;43.406;3.698;2023-04-09T22:41:35;3.80;;;1.30;;
70547;SDS011;58099;43.406;3.698;2023-04-09T22:44:01;6.18;;;1.42;;
70547;SDS011;58099;43.406;3.698;2023-04-09T22:46:26;4.20;;;1.30;;
70547;SDS011;58099;43.406;3.698;2023-04-09T22:48:53;5.17;;;1.30;;